createdAt,value
2019-05-21T00:01:14.404Z,4.08
2019-05-21T00:03:46.274Z,4.05
2019-05-21T00:06:18.338Z,3.60
2019-05-21T00:08:50.318Z,3.67
2019-05-21T00:11:22.794Z,3.72
2019-05-21T00:13:54.621Z,3.50
2019-05-21T00:16:26.973Z,3.87
2019-05-21T00:18:59.103Z,3.67
2019-05-21T00:21:31.038Z,3.37
2019-05-21T00:24:02.998Z,3.42
2019-05-21T00:26:34.945Z,3.20
2019-05-21T00:29:42.939Z,3.35
2019-05-21T00:32:51.676Z,3.25
2019-05-21T00:36:00.399Z,3.35
2019-05-21T00:39:08.408Z,3.42
2019-05-21T00:42:03.160Z,3.83
2019-05-21T00:44:40.740Z,3.20
2019-05-21T00:47:13.173Z,3.40
2019-05-21T00:49:44.809Z,3.50
2019-05-21T00:52:16.401Z,3.42
2019-05-21T00:54:48.464Z,3.30
2019-05-21T00:57:20.119Z,3.37
2019-05-21T00:59:52.274Z,3.25
2019-05-21T01:02:24.252Z,3.35
2019-05-21T01:05:00.895Z,3.20
2019-05-21T01:07:30.533Z,3.87
2019-05-21T01:10:02.614Z,3.15
2019-05-21T01:12:34.863Z,3.30
2019-05-21T01:15:08.283Z,3.60
2019-05-21T01:17:40.016Z,3.30
2019-05-21T01:20:12.087Z,3.30
2019-05-21T01:22:43.945Z,3.50
2019-05-21T01:25:16.011Z,3.60
2019-05-21T01:27:48.158Z,3.08
2019-05-21T01:30:20.350Z,3.20
2019-05-21T01:32:52.319Z,3.42
2019-05-21T01:35:24.689Z,3.10
2019-05-21T01:37:56.517Z,3.20
2019-05-21T01:40:28.706Z,3.33
2019-05-21T01:43:03.310Z,3.00
2019-05-21T01:45:35.780Z,3.33
2019-05-21T01:48:07.339Z,3.10
2019-05-21T01:50:39.303Z,3.08
2019-05-21T01:53:11.392Z,3.10
2019-05-21T01:55:43.450Z,3.08
2019-05-21T01:58:15.289Z,2.72
2019-05-21T02:00:47.354Z,3.08
2019-05-21T02:03:19.439Z,2.95
2019-05-21T02:05:51.697Z,2.77
2019-05-21T02:08:23.367Z,2.92
2019-05-21T02:10:55.430Z,2.85
2019-05-21T02:13:27.476Z,3.00
2019-05-21T02:15:59.456Z,2.50
2019-05-21T02:18:31.620Z,2.95
2019-05-21T02:21:03.737Z,2.83
2019-05-21T02:23:37.171Z,3.10
2019-05-21T02:26:09.059Z,2.85
2019-05-21T02:28:41.574Z,3.00
2019-05-21T02:31:13.965Z,2.62
2019-05-21T02:33:45.950Z,2.62
2019-05-21T02:36:17.930Z,2.67
2019-05-21T02:38:49.971Z,2.65
2019-05-21T02:41:22.057Z,2.85
2019-05-21T02:43:54.336Z,2.90
2019-05-21T02:46:26.187Z,2.60
2019-05-21T02:48:58.028Z,2.55
2019-05-21T02:51:30.210Z,2.70
2019-05-21T02:54:01.971Z,2.98
2019-05-21T02:56:33.915Z,2.72
2019-05-21T02:59:06.201Z,2.95
2019-05-21T03:01:39.491Z,2.77
2019-05-21T03:04:11.777Z,3.15
2019-05-21T03:06:43.808Z,2.58
2019-05-21T03:09:15.892Z,2.60
2019-05-21T03:11:47.490Z,2.37
2019-05-21T03:14:19.511Z,2.30
2019-05-21T03:16:52.296Z,2.85
2019-05-21T03:19:24.342Z,2.87
2019-05-21T03:21:56.146Z,2.65
2019-05-21T03:24:28.237Z,2.45
2019-05-21T03:27:00.356Z,2.60
2019-05-21T03:29:32.520Z,2.47
2019-05-21T03:32:04.697Z,2.62
2019-05-21T03:34:37.967Z,2.40
2019-05-21T03:37:09.929Z,2.50
2019-05-21T03:39:41.702Z,2.20
2019-05-21T03:42:13.561Z,2.05
2019-05-21T03:44:59.126Z,2.52
2019-05-21T03:47:19.678Z,2.50
2019-05-21T03:49:51.596Z,2.33
2019-05-21T03:52:23.560Z,2.60
2019-05-21T03:54:55.509Z,2.20
2019-05-21T03:57:28.394Z,2.55
2019-05-21T04:00:00.371Z,2.50
2019-05-21T04:02:32.017Z,2.42
2019-05-21T04:05:04.899Z,2.62
2019-05-21T04:07:36.679Z,2.58
2019-05-21T04:10:15.943Z,2.47
2019-05-21T04:13:06.901Z,2.50
2019-05-21T04:15:58.005Z,2.85
2019-05-21T04:18:31.579Z,2.50
2019-05-21T04:21:03.697Z,2.30
2019-05-21T04:23:35.653Z,2.58
2019-05-21T04:26:07.735Z,2.47
2019-05-21T04:28:39.881Z,2.30
2019-05-21T04:31:11.525Z,2.47
2019-05-21T04:33:43.403Z,2.60
2019-05-21T04:36:15.139Z,2.70
2019-05-21T04:38:47.125Z,2.58
2019-05-21T04:41:19.173Z,2.47
2019-05-21T04:43:50.926Z,2.30
2019-05-21T04:46:22.700Z,2.47
2019-05-21T04:48:54.561Z,2.50
2019-05-21T04:51:26.649Z,2.20
2019-05-21T04:53:58.690Z,2.08
2019-05-21T04:56:30.650Z,2.40
2019-05-21T04:59:02.727Z,2.62
2019-05-21T05:01:34.779Z,2.00
2019-05-21T05:04:07.246Z,2.25
2019-05-21T05:06:39.219Z,2.22
2019-05-21T05:09:11.036Z,2.45
2019-05-21T05:11:43.051Z,2.47
2019-05-21T05:14:14.658Z,2.77
2019-05-21T05:16:46.749Z,2.55
2019-05-21T05:19:18.628Z,2.50
2019-05-21T05:21:50.598Z,2.50
2019-05-21T05:24:22.555Z,2.50
2019-05-21T05:26:54.531Z,3.10
2019-05-21T05:29:26.581Z,2.40
2019-05-21T05:31:58.754Z,2.02
2019-05-21T05:34:30.966Z,2.20
2019-05-21T05:37:02.777Z,2.33
2019-05-21T05:39:34.412Z,2.50
2019-05-21T05:42:06.380Z,2.47
2019-05-21T05:44:38.281Z,2.37
2019-05-21T05:47:11.326Z,2.27
2019-05-21T05:49:44.633Z,2.40
2019-05-21T05:52:16.493Z,2.27
2019-05-21T05:54:48.362Z,2.27
2019-05-21T05:57:20.420Z,2.17
2019-05-21T05:59:52.688Z,2.30
2019-05-21T06:02:24.349Z,2.20
2019-05-21T06:04:56.394Z,2.08
2019-05-21T06:07:27.950Z,2.05
2019-05-21T06:09:59.815Z,2.12
2019-05-21T06:12:31.585Z,2.12
2019-05-21T06:15:03.879Z,1.85
2019-05-21T06:17:35.506Z,1.92
2019-05-21T06:20:08.715Z,2.10
2019-05-21T06:22:41.892Z,1.90
2019-05-21T06:25:14.170Z,2.17
2019-05-21T06:27:46.602Z,2.20
2019-05-21T06:30:18.678Z,1.95
2019-05-21T06:32:50.253Z,2.17
2019-05-21T06:35:22.339Z,2.30
2019-05-21T06:37:54.385Z,2.22
2019-05-21T06:40:26.046Z,2.05
2019-05-21T06:42:57.986Z,2.10
2019-05-21T06:45:29.867Z,2.10
2019-05-21T06:48:01.606Z,2.20
2019-05-21T06:50:37.104Z,2.10
2019-05-21T06:53:06.778Z,2.17
2019-05-21T06:55:38.738Z,1.98
2019-05-21T06:58:10.598Z,2.10
2019-05-21T07:00:42.875Z,2.00
2019-05-21T07:03:14.736Z,2.00
2019-05-21T07:05:58.263Z,2.87
2019-05-21T07:08:33.499Z,2.30
2019-05-21T07:10:53.385Z,2.20
2019-05-21T07:13:25.654Z,2.00
2019-05-21T07:15:57.717Z,1.87
2019-05-21T07:18:29.775Z,1.95
2019-05-21T07:21:01.849Z,2.00
2019-05-21T07:23:34.330Z,2.08
2019-05-21T07:26:06.186Z,2.30
2019-05-21T07:28:38.369Z,2.62
2019-05-21T07:31:10.318Z,2.47
2019-05-21T07:33:45.129Z,2.67
2019-05-21T07:36:16.795Z,2.52
2019-05-21T07:38:54.022Z,2.50
2019-05-21T07:41:22.466Z,2.25
2019-05-21T07:43:55.152Z,2.15
2019-05-21T07:46:27.008Z,1.95
2019-05-21T07:48:58.974Z,2.10
2019-05-21T07:51:30.720Z,1.90
2019-05-21T07:54:02.667Z,1.92
2019-05-21T07:56:34.767Z,2.40
2019-05-21T07:59:07.747Z,2.37
2019-05-21T08:01:39.978Z,2.10
2019-05-21T08:04:11.972Z,2.12
2019-05-21T08:06:44.178Z,2.10
2019-05-21T08:09:15.999Z,2.20
2019-05-21T08:11:47.867Z,2.30
2019-05-21T08:14:19.829Z,1.90
2019-05-21T08:16:52.001Z,1.98
2019-05-21T08:19:24.169Z,2.20
2019-05-21T08:21:56.117Z,1.90
2019-05-21T08:24:27.978Z,1.77
2019-05-21T08:26:59.938Z,2.25
2019-05-21T08:29:32.096Z,1.90
2019-05-21T08:32:04.182Z,2.22
2019-05-21T08:34:35.817Z,1.75
2019-05-21T08:37:07.683Z,2.15
2019-05-21T08:39:39.758Z,1.90
2019-05-21T08:42:11.728Z,2.10
2019-05-21T08:44:43.856Z,2.00
2019-05-21T08:47:15.759Z,2.00
2019-05-21T08:49:47.817Z,1.90
2019-05-21T08:52:19.679Z,2.00
2019-05-21T08:54:55.802Z,2.00
2019-05-21T08:57:25.861Z,1.75
2019-05-21T08:59:57.853Z,2.17
2019-05-21T09:02:29.580Z,2.10
2019-05-21T09:05:01.726Z,1.90
2019-05-21T09:07:33.811Z,2.00
2019-05-21T09:10:09.312Z,1.82
2019-05-21T09:12:41.116Z,1.82
2019-05-21T09:15:13.827Z,1.85
2019-05-21T09:17:45.448Z,2.25
2019-05-21T09:20:18.687Z,1.60
2019-05-21T09:22:50.284Z,2.17
2019-05-21T09:25:22.165Z,1.72
2019-05-21T09:27:54.026Z,1.80
2019-05-21T09:30:26.158Z,4.37
2019-05-21T09:32:57.941Z,3.12
2019-05-21T09:35:30.119Z,2.80
2019-05-21T09:38:01.750Z,2.50
2019-05-21T09:40:35.065Z,1.92
2019-05-21T09:43:07.024Z,1.65
2019-05-21T09:45:39.101Z,1.70
2019-05-21T09:48:10.957Z,1.75
2019-05-21T09:50:42.894Z,1.57
2019-05-21T09:53:14.776Z,1.95
2019-05-21T09:55:46.861Z,1.82
2019-05-21T09:58:20.544Z,2.10
2019-05-21T10:03:38.292Z,2.00
2019-05-21T10:06:10.133Z,1.75
2019-05-21T10:08:42.521Z,2.45
2019-05-21T10:11:14.268Z,2.10
2019-05-21T10:13:46.093Z,2.40
2019-05-21T10:16:17.985Z,2.17
2019-05-21T10:18:49.847Z,2.20
2019-05-21T10:21:21.822Z,1.87
2019-05-21T10:23:53.998Z,2.45
2019-05-21T10:26:26.265Z,2.33
2019-05-21T10:28:58.116Z,1.82
2019-05-21T10:31:30.085Z,1.92
2019-05-21T10:34:02.441Z,1.80
2019-05-21T10:36:34.628Z,1.90
2019-05-21T10:39:08.010Z,1.95
2019-05-21T10:41:40.071Z,1.90
2019-05-21T10:44:12.052Z,1.87
2019-05-21T10:46:44.013Z,2.00
2019-05-21T10:49:16.066Z,2.30
2019-05-21T10:51:47.721Z,2.10
2019-05-21T10:54:19.394Z,2.10
2019-05-21T10:56:51.256Z,2.00
2019-05-21T10:59:23.533Z,2.30
2019-05-21T11:01:56.713Z,2.47
2019-05-21T11:04:36.364Z,2.60
2019-05-21T11:07:10.264Z,2.33
2019-05-21T11:09:43.608Z,2.47
2019-05-21T11:12:15.830Z,1.95
2019-05-21T11:14:47.467Z,2.08
2019-05-21T11:17:19.853Z,1.85
2019-05-21T11:19:51.922Z,1.62
2019-05-21T11:22:23.987Z,1.85
2019-05-21T11:24:56.039Z,1.75
2019-05-21T11:27:27.790Z,1.90
2019-05-21T11:32:32.351Z,1.75
2019-05-21T11:35:05.901Z,1.72
2019-05-21T11:37:37.628Z,2.15
2019-05-21T11:40:10.170Z,1.90
2019-05-21T11:42:42.046Z,2.03
2019-05-21T11:45:29.442Z,1.62
2019-05-21T11:47:47.403Z,1.80
2019-05-21T11:50:19.398Z,1.90
2019-05-21T11:52:51.524Z,1.80
2019-05-21T11:55:23.302Z,1.90
2019-05-21T11:57:55.136Z,1.77
2019-05-21T12:00:28.501Z,1.80
2019-05-21T12:03:00.718Z,1.95
2019-05-21T12:05:32.891Z,2.02
2019-05-21T12:08:04.941Z,1.70
2019-05-21T12:10:37.225Z,2.10
2019-05-21T12:13:09.221Z,1.60
2019-05-21T12:15:41.146Z,1.92
2019-05-21T12:18:13.418Z,1.90
2019-05-21T12:20:48.230Z,1.92
2019-05-21T12:23:21.728Z,1.87
2019-05-21T12:25:53.606Z,1.98
2019-05-21T12:28:25.671Z,1.82
2019-05-21T12:30:57.623Z,1.80
2019-05-21T12:33:29.624Z,1.90
2019-05-21T12:36:01.665Z,1.87
2019-05-21T12:38:33.734Z,2.02
2019-05-21T12:41:05.879Z,1.98
2019-05-21T12:43:37.553Z,2.10
2019-05-21T12:46:09.413Z,2.22
2019-05-21T12:48:41.196Z,2.50
2019-05-21T12:51:14.574Z,2.08
2019-05-21T12:53:46.637Z,2.50
2019-05-21T12:56:18.596Z,2.12
2019-05-21T12:58:50.645Z,2.33
2019-05-21T13:01:23.547Z,2.27
2019-05-21T13:03:55.663Z,2.25
2019-05-21T13:06:27.572Z,2.25
2019-05-21T13:08:59.434Z,2.20
2019-05-21T13:11:32.628Z,1.90
2019-05-21T13:14:04.899Z,2.05
2019-05-21T13:16:36.660Z,2.30
2019-05-21T13:19:11.226Z,2.30
2019-05-21T13:21:42.025Z,2.75
2019-05-21T13:24:13.871Z,2.95
2019-05-21T13:26:45.779Z,2.62
2019-05-21T13:29:18.054Z,2.30
2019-05-21T13:31:50.111Z,2.37
2019-05-21T13:34:22.031Z,2.47
2019-05-21T13:36:54.014Z,2.30
2019-05-21T13:39:25.871Z,2.20
2019-05-21T13:41:58.648Z,2.20
2019-05-21T13:44:30.480Z,2.25
2019-05-21T13:47:02.630Z,2.15
2019-05-21T13:49:34.404Z,2.45
2019-05-21T13:52:06.604Z,2.47
2019-05-21T13:54:40.106Z,2.58
2019-05-21T13:57:12.361Z,2.50
2019-05-21T13:59:44.865Z,2.35
2019-05-21T14:02:18.724Z,2.60
2019-05-21T14:04:50.915Z,2.65
2019-05-21T14:07:23.590Z,2.70
2019-05-21T14:10:13.441Z,4.05
2019-05-21T14:12:29.290Z,2.80
2019-05-21T14:15:01.548Z,2.65
2019-05-21T14:17:33.676Z,2.70
2019-05-21T14:20:10.199Z,2.87
2019-05-21T14:22:42.107Z,2.47
2019-05-21T14:25:14.230Z,2.70
2019-05-21T14:27:45.936Z,4.22
2019-05-21T14:30:18.128Z,3.60
2019-05-21T14:32:50.300Z,3.87
2019-05-21T14:35:22.348Z,4.10
2019-05-21T14:37:54.211Z,3.75
2019-05-21T14:40:31.711Z,4.05
2019-05-21T14:43:00.830Z,4.00
2019-05-21T14:45:34.483Z,3.52
2019-05-21T14:48:06.652Z,3.65
2019-05-21T14:50:38.737Z,3.60
2019-05-21T14:53:10.842Z,4.00
2019-05-21T14:55:42.543Z,4.22
2019-05-21T14:58:14.526Z,3.83
2019-05-21T15:00:46.382Z,3.72
2019-05-21T15:03:25.400Z,3.67
2019-05-21T15:08:23.411Z,3.95
2019-05-21T15:10:55.141Z,4.10
2019-05-21T15:13:27.224Z,3.95
2019-05-21T15:15:59.130Z,4.08
2019-05-21T15:18:31.660Z,4.10
2019-05-21T15:21:05.255Z,3.60
2019-05-21T15:23:37.316Z,3.83
2019-05-21T15:26:12.216Z,3.72
2019-05-21T15:28:45.258Z,3.70
2019-05-21T15:31:17.416Z,3.93
2019-05-21T15:33:49.480Z,3.93
2019-05-21T15:36:21.528Z,3.58
2019-05-21T15:38:53.328Z,3.92
2019-05-21T15:41:25.251Z,3.83
2019-05-21T15:43:57.023Z,4.03
2019-05-21T15:46:45.463Z,3.92
2019-05-21T15:49:03.313Z,4.12
2019-05-21T15:51:35.578Z,4.00
2019-05-21T15:54:07.783Z,3.77
2019-05-21T15:56:39.709Z,3.17
2019-05-21T15:59:11.357Z,3.87
2019-05-21T16:01:43.220Z,3.87
2019-05-21T16:04:16.620Z,3.75
2019-05-21T16:06:50.023Z,3.83
2019-05-21T16:09:21.862Z,4.08
2019-05-21T16:11:53.835Z,3.60
2019-05-21T16:14:25.792Z,3.50
2019-05-21T16:16:57.874Z,4.17
2019-05-21T16:19:30.072Z,4.17
2019-05-21T16:22:01.975Z,3.77
2019-05-21T16:24:33.946Z,3.67
2019-05-21T16:27:05.704Z,3.85
2019-05-21T16:29:38.958Z,3.95
2019-05-21T16:32:11.006Z,4.03
2019-05-21T16:34:43.037Z,3.85
2019-05-21T16:37:15.306Z,3.85
2019-05-21T16:39:46.974Z,3.90
2019-05-21T16:42:18.656Z,3.70
2019-05-21T16:44:50.790Z,3.75
2019-05-21T16:47:22.551Z,3.95
2019-05-21T16:49:54.919Z,3.85
2019-05-21T16:52:26.986Z,3.85
2019-05-21T16:55:00.897Z,3.83
2019-05-21T16:57:33.355Z,4.08
2019-05-21T17:00:09.486Z,4.20
2019-05-21T17:02:41.294Z,4.40
2019-05-21T17:05:14.192Z,4.15
2019-05-21T17:07:46.256Z,4.37
2019-05-21T17:10:19.820Z,4.72
2019-05-21T17:12:51.906Z,4.58
2019-05-21T17:15:24.073Z,7.47
2019-05-21T17:17:55.929Z,7.15
2019-05-21T17:20:27.812Z,6.53
2019-05-21T17:22:59.862Z,6.40
2019-05-21T17:25:31.920Z,6.40
2019-05-21T17:28:03.988Z,7.50
2019-05-21T17:30:36.246Z,8.58
2019-05-21T17:33:08.324Z,15.85
2019-05-21T17:35:39.967Z,33.28
2019-05-21T17:38:11.948Z,36.15
2019-05-21T17:40:44.419Z,28.85
2019-05-21T17:43:16.393Z,19.45
2019-05-21T17:45:48.548Z,16.90
2019-05-21T17:48:20.624Z,13.58
2019-05-21T17:50:53.521Z,10.98
2019-05-21T17:53:26.467Z,10.10
2019-05-21T17:55:58.350Z,8.93
2019-05-21T17:58:30.948Z,6.85
2019-05-21T18:01:07.546Z,6.80
2019-05-21T18:03:39.764Z,14.65
2019-05-21T18:06:14.016Z,78.83
2019-05-21T18:08:45.944Z,62.53
2019-05-21T18:11:18.304Z,44.40
2019-05-21T18:13:50.891Z,27.40
2019-05-21T18:16:22.712Z,19.77
2019-05-21T18:18:54.510Z,11.10
2019-05-21T18:21:26.881Z,10.30
2019-05-21T18:23:58.729Z,11.75
2019-05-21T18:26:30.606Z,11.00
2019-05-21T18:29:02.595Z,9.65
2019-05-21T18:31:34.524Z,8.50
2019-05-21T18:34:06.590Z,8.80
2019-05-21T18:36:38.656Z,9.20
2019-05-21T18:39:10.827Z,8.43
2019-05-21T18:41:42.672Z,7.05
2019-05-21T18:44:14.738Z,9.00
2019-05-21T18:46:48.315Z,9.55
2019-05-21T18:49:20.219Z,11.12
2019-05-21T18:51:52.176Z,9.20
2019-05-21T18:54:23.830Z,8.43
2019-05-21T18:56:55.799Z,7.75
2019-05-21T18:59:28.409Z,7.78
2019-05-21T19:02:00.391Z,9.60
2019-05-21T19:04:36.403Z,12.90
2019-05-21T19:07:11.535Z,12.90
2019-05-21T19:09:43.331Z,11.18
2019-05-21T19:12:15.994Z,15.43
2019-05-21T19:14:47.862Z,12.80
2019-05-21T19:17:34.327Z,12.47
2019-05-21T19:19:52.965Z,14.70
2019-05-21T19:22:27.551Z,10.23
2019-05-21T19:24:58.139Z,9.93
2019-05-21T19:27:30.202Z,8.08
2019-05-21T19:30:02.168Z,7.83
2019-05-21T19:32:34.127Z,7.30
2019-05-21T19:35:07.024Z,7.12
2019-05-21T19:37:38.974Z,6.53
2019-05-21T19:40:11.019Z,7.33
2019-05-21T19:42:54.341Z,7.55
2019-05-21T19:45:17.340Z,7.20
2019-05-21T19:47:49.076Z,7.53
2019-05-21T19:50:21.449Z,9.95
2019-05-21T19:52:53.521Z,13.72
2019-05-21T19:55:27.004Z,12.23
2019-05-21T19:57:58.976Z,8.78
2019-05-21T20:00:32.357Z,7.72
2019-05-21T20:03:04.653Z,7.25
2019-05-21T20:05:36.605Z,6.78
2019-05-21T20:08:08.568Z,7.35
2019-05-21T20:10:40.939Z,7.08
2019-05-21T20:13:12.797Z,7.20
2019-05-21T20:15:44.967Z,7.33
2019-05-21T20:18:17.439Z,7.03
2019-05-21T20:20:50.326Z,7.50
2019-05-21T20:23:22.289Z,7.92
2019-05-21T20:25:56.741Z,7.45
2019-05-21T20:28:28.778Z,7.37
2019-05-21T20:31:01.845Z,7.47
2019-05-21T20:33:35.391Z,8.78
2019-05-21T20:36:06.925Z,8.08
2019-05-21T20:38:40.102Z,8.80
2019-05-21T20:41:12.542Z,9.40
2019-05-21T20:43:58.231Z,8.75
2019-05-21T20:46:19.762Z,10.18
2019-05-21T20:48:52.886Z,10.23
2019-05-21T20:51:24.611Z,10.45
2019-05-21T20:53:56.608Z,8.93
2019-05-21T20:56:28.757Z,9.13
2019-05-21T20:59:00.825Z,8.40
2019-05-21T21:01:33.809Z,7.92
2019-05-21T21:04:05.985Z,8.23
2019-05-21T21:06:38.054Z,8.33
2019-05-21T21:09:10.666Z,7.78
2019-05-21T21:11:43.369Z,7.45
2019-05-21T21:14:18.284Z,7.50
2019-05-21T21:16:50.752Z,7.12
2019-05-21T21:19:22.773Z,7.12
2019-05-21T21:21:54.634Z,7.55
2019-05-21T21:24:27.799Z,7.57
2019-05-21T21:27:00.405Z,7.17
2019-05-21T21:29:32.674Z,7.62
2019-05-21T21:32:04.556Z,7.60
2019-05-21T21:34:36.906Z,7.70
2019-05-21T21:37:09.129Z,7.30
2019-05-21T21:39:42.365Z,7.17
2019-05-21T21:42:14.626Z,7.90
2019-05-21T21:44:46.843Z,8.08
2019-05-21T21:47:18.759Z,8.03
2019-05-21T21:49:52.356Z,8.25
2019-05-21T21:52:24.022Z,7.65
2019-05-21T21:54:56.403Z,7.45
2019-05-21T21:57:28.358Z,7.87
2019-05-21T22:00:00.130Z,7.92
2019-05-21T22:02:34.892Z,7.70
2019-05-21T22:05:09.157Z,7.50
2019-05-21T22:07:40.803Z,7.35
2019-05-21T22:10:12.969Z,7.65
2019-05-21T22:12:44.645Z,8.13
2019-05-21T22:15:16.810Z,7.58
2019-05-21T22:17:49.093Z,7.47
2019-05-21T22:20:22.042Z,8.25
2019-05-21T22:22:53.968Z,8.33
2019-05-21T22:25:26.190Z,8.40
2019-05-21T22:27:58.260Z,8.18
2019-05-21T22:30:30.022Z,8.23
2019-05-21T22:33:02.191Z,8.10
2019-05-21T22:35:34.167Z,8.18
2019-05-21T22:38:06.421Z,8.55
2019-05-21T22:40:53.626Z,8.38
2019-05-21T22:43:25.488Z,8.70
2019-05-21T22:45:57.885Z,8.93
2019-05-21T22:48:29.635Z,8.95
2019-05-21T22:51:01.698Z,8.80
2019-05-21T22:53:33.765Z,7.80
2019-05-21T22:56:05.717Z,8.40
2019-05-21T22:58:37.481Z,8.23
2019-05-21T23:01:11.066Z,7.75
2019-05-21T23:03:43.163Z,8.50
2019-05-21T23:06:15.015Z,8.43
2019-05-21T23:08:48.303Z,8.53
2019-05-21T23:11:23.047Z,8.28
2019-05-21T23:13:53.775Z,8.30
2019-05-21T23:16:27.472Z,8.15
2019-05-21T23:19:05.423Z,8.48
2019-05-21T23:21:42.616Z,7.80
2019-05-21T23:24:16.067Z,7.45
2019-05-21T23:26:48.201Z,7.90
2019-05-21T23:29:20.899Z,7.85
2019-05-21T23:31:52.753Z,7.70
2019-05-21T23:34:24.932Z,7.10
2019-05-21T23:36:57.931Z,7.80
2019-05-21T23:39:32.238Z,6.80
2019-05-21T23:42:05.508Z,6.78
2019-05-21T23:44:38.522Z,7.03
2019-05-21T23:47:15.274Z,6.80
2019-05-21T23:49:47.337Z,6.85
2019-05-21T23:52:19.420Z,6.70
2019-05-21T23:54:51.469Z,6.78
2019-05-21T23:57:27.646Z,6.97
2019-05-21T23:59:59.814Z,7.10
